Terminal Aerodrome Forecast
Issued by NWS Chicago, IL

Home | Current Version | Previous Version | Text Only | Print | Product List | Glossary Off
Versions: 1 2 3 4 5 6 7 8 9 10 11 12 13 14 15 16 17 18 19 20 21 22 23 24 25 26 27 28 29

379
FTUS43 KLOT 280258 AAA
TAFRFD
TAF AMD
KRFD 280258Z 2803/2824 18008KT P6SM SCT250
     FM281000 17011KT P6SM BKN050 BKN250
     FM281400 19017G27KT 4SM -SHRA VCTS OVC045CB PROB30 2814/2816
      2SM TSRA OVC025CB
     FM281700 19020G29KT P6SM VCSH BKN050=

USA.gov is the U.S. government's official web portal to all federal, state and local government web resources and services.